sensor_id;sensor_type;location;lat;lon;timestamp;P1;durP1;ratioP1;P2;durP2;ratioP2
9260;SDS011;4667;42.726;23.252;2023-07-29T00:01:42;5.20;;;4.03;;
9260;SDS011;4667;42.726;23.252;2023-07-29T00:04:11;4.40;;;3.73;;
9260;SDS011;4667;42.726;23.252;2023-07-29T00:06:38;5.07;;;3.83;;
9260;SDS011;4667;42.726;23.252;2023-07-29T00:09:05;6.07;;;3.53;;
9260;SDS011;4667;42.726;23.252;2023-07-29T00:11:31;4.85;;;3.20;;
9260;SDS011;4667;42.726;23.252;2023-07-29T00:13:59;4.10;;;3.47;;
9260;SDS011;4667;42.726;23.252;2023-07-29T00:16:26;6.60;;;3.30;;
9260;SDS011;4667;42.726;23.252;2023-07-29T00:18:52;4.30;;;3.60;;
9260;SDS011;4667;42.726;23.252;2023-07-29T00:21:20;3.90;;;3.50;;
9260;SDS011;4667;42.726;23.252;2023-07-29T00:23:47;5.00;;;3.50;;
9260;SDS011;4667;42.726;23.252;2023-07-29T00:26:14;5.83;;;3.60;;
9260;SDS011;4667;42.726;23.252;2023-07-29T00:28:41;3.83;;;3.17;;
9260;SDS011;4667;42.726;23.252;2023-07-29T00:31:07;4.13;;;3.20;;
9260;SDS011;4667;42.726;23.252;2023-07-29T00:33:34;4.07;;;3.30;;
9260;SDS011;4667;42.726;23.252;2023-07-29T00:36:01;4.13;;;3.10;;
9260;SDS011;4667;42.726;23.252;2023-07-29T00:38:29;4.57;;;3.10;;
9260;SDS011;4667;42.726;23.252;2023-07-29T00:40:56;4.10;;;3.47;;
9260;SDS011;4667;42.726;23.252;2023-07-29T00:43:23;3.60;;;3.30;;
9260;SDS011;4667;42.726;23.252;2023-07-29T00:45:50;4.80;;;3.80;;
9260;SDS011;4667;42.726;23.252;2023-07-29T00:48:17;4.10;;;3.67;;
9260;SDS011;4667;42.726;23.252;2023-07-29T00:50:43;6.00;;;3.60;;
9260;SDS011;4667;42.726;23.252;2023-07-29T00:53:10;5.33;;;3.30;;
9260;SDS011;4667;42.726;23.252;2023-07-29T00:55:38;4.47;;;3.27;;
9260;SDS011;4667;42.726;23.252;2023-07-29T00:58:05;4.87;;;3.00;;
9260;SDS011;4667;42.726;23.252;2023-07-29T01:00:32;4.80;;;3.60;;
9260;SDS011;4667;42.726;23.252;2023-07-29T01:02:59;3.67;;;3.27;;
9260;SDS011;4667;42.726;23.252;2023-07-29T01:05:26;5.70;;;3.47;;
9260;SDS011;4667;42.726;23.252;2023-07-29T01:07:59;3.70;;;3.40;;
9260;SDS011;4667;42.726;23.252;2023-07-29T01:10:34;5.70;;;3.27;;
9260;SDS011;4667;42.726;23.252;2023-07-29T01:13:10;4.33;;;3.67;;
9260;SDS011;4667;42.726;23.252;2023-07-29T01:15:43;3.90;;;3.50;;
9260;SDS011;4667;42.726;23.252;2023-07-29T01:18:15;3.77;;;3.47;;
9260;SDS011;4667;42.726;23.252;2023-07-29T01:20:47;3.73;;;3.13;;
9260;SDS011;4667;42.726;23.252;2023-07-29T01:23:15;5.43;;;3.47;;
9260;SDS011;4667;42.726;23.252;2023-07-29T01:25:43;4.87;;;3.77;;
9260;SDS011;4667;42.726;23.252;2023-07-29T01:28:10;6.00;;;3.83;;
9260;SDS011;4667;42.726;23.252;2023-07-29T01:30:38;4.40;;;3.33;;
9260;SDS011;4667;42.726;23.252;2023-07-29T01:33:08;5.57;;;3.73;;
9260;SDS011;4667;42.726;23.252;2023-07-29T01:35:41;3.93;;;3.33;;
9260;SDS011;4667;42.726;23.252;2023-07-29T01:38:13;4.00;;;3.33;;
9260;SDS011;4667;42.726;23.252;2023-07-29T01:40:45;4.07;;;3.33;;
9260;SDS011;4667;42.726;23.252;2023-07-29T01:43:14;5.63;;;3.47;;
9260;SDS011;4667;42.726;23.252;2023-07-29T01:45:41;4.77;;;3.50;;
9260;SDS011;4667;42.726;23.252;2023-07-29T01:48:07;5.63;;;3.80;;
9260;SDS011;4667;42.726;23.252;2023-07-29T01:50:34;5.17;;;3.60;;
9260;SDS011;4667;42.726;23.252;2023-07-29T01:53:01;6.13;;;3.70;;
9260;SDS011;4667;42.726;23.252;2023-07-29T01:55:28;5.73;;;3.60;;
9260;SDS011;4667;42.726;23.252;2023-07-29T01:57:57;5.23;;;3.33;;
9260;SDS011;4667;42.726;23.252;2023-07-29T02:00:24;4.70;;;3.73;;
9260;SDS011;4667;42.726;23.252;2023-07-29T02:02:51;5.20;;;3.37;;
9260;SDS011;4667;42.726;23.252;2023-07-29T02:05:17;4.73;;;3.40;;
9260;SDS011;4667;42.726;23.252;2023-07-29T02:07:44;3.90;;;3.50;;
9260;SDS011;4667;42.726;23.252;2023-07-29T02:10:11;7.23;;;4.03;;
9260;SDS011;4667;42.726;23.252;2023-07-29T02:12:37;4.17;;;3.57;;
9260;SDS011;4667;42.726;23.252;2023-07-29T02:15:06;4.77;;;3.57;;
9260;SDS011;4667;42.726;23.252;2023-07-29T02:17:34;4.17;;;3.73;;
9260;SDS011;4667;42.726;23.252;2023-07-29T02:20:01;3.77;;;3.27;;
9260;SDS011;4667;42.726;23.252;2023-07-29T02:22:28;4.43;;;4.03;;
9260;SDS011;4667;42.726;23.252;2023-07-29T02:24:55;4.57;;;4.10;;
9260;SDS011;4667;42.726;23.252;2023-07-29T02:27:22;4.73;;;4.20;;
9260;SDS011;4667;42.726;23.252;2023-07-29T02:29:50;6.27;;;4.00;;
9260;SDS011;4667;42.726;23.252;2023-07-29T02:32:18;4.90;;;4.03;;
9260;SDS011;4667;42.726;23.252;2023-07-29T02:34:45;6.50;;;4.33;;
9260;SDS011;4667;42.726;23.252;2023-07-29T02:37:11;6.13;;;3.87;;
9260;SDS011;4667;42.726;23.252;2023-07-29T02:39:38;5.47;;;4.27;;
9260;SDS011;4667;42.726;23.252;2023-07-29T02:42:05;5.27;;;4.30;;
9260;SDS011;4667;42.726;23.252;2023-07-29T02:44:32;5.37;;;3.87;;
9260;SDS011;4667;42.726;23.252;2023-07-29T02:46:58;5.27;;;3.93;;
9260;SDS011;4667;42.726;23.252;2023-07-29T02:49:26;5.43;;;3.73;;
9260;SDS011;4667;42.726;23.252;2023-07-29T02:51:53;4.47;;;4.00;;
9260;SDS011;4667;42.726;23.252;2023-07-29T02:54:20;5.97;;;3.70;;
9260;SDS011;4667;42.726;23.252;2023-07-29T02:56:46;4.80;;;4.33;;
9260;SDS011;4667;42.726;23.252;2023-07-29T02:59:13;5.50;;;3.53;;
9260;SDS011;4667;42.726;23.252;2023-07-29T03:01:40;7.63;;;3.83;;
9260;SDS011;4667;42.726;23.252;2023-07-29T03:04:06;5.10;;;4.57;;
9260;SDS011;4667;42.726;23.252;2023-07-29T03:06:35;10.30;;;3.63;;
9260;SDS011;4667;42.726;23.252;2023-07-29T03:09:01;5.57;;;3.90;;
9260;SDS011;4667;42.726;23.252;2023-07-29T03:11:28;6.47;;;4.37;;
9260;SDS011;4667;42.726;23.252;2023-07-29T03:13:56;5.20;;;3.80;;
9260;SDS011;4667;42.726;23.252;2023-07-29T03:16:22;8.60;;;4.57;;
9260;SDS011;4667;42.726;23.252;2023-07-29T03:18:49;5.57;;;3.77;;
9260;SDS011;4667;42.726;23.252;2023-07-29T03:21:16;5.57;;;4.17;;
9260;SDS011;4667;42.726;23.252;2023-07-29T03:23:44;5.00;;;4.00;;
9260;SDS011;4667;42.726;23.252;2023-07-29T03:26:11;7.30;;;4.27;;
9260;SDS011;4667;42.726;23.252;2023-07-29T03:28:38;5.73;;;4.20;;
9260;SDS011;4667;42.726;23.252;2023-07-29T03:31:06;8.47;;;4.67;;
9260;SDS011;4667;42.726;23.252;2023-07-29T03:33:33;10.20;;;3.90;;
9260;SDS011;4667;42.726;23.252;2023-07-29T03:36:00;8.30;;;4.80;;
9260;SDS011;4667;42.726;23.252;2023-07-29T03:38:27;6.03;;;4.43;;
9260;SDS011;4667;42.726;23.252;2023-07-29T03:40:56;7.63;;;5.00;;
9260;SDS011;4667;42.726;23.252;2023-07-29T03:43:23;7.43;;;4.13;;
9260;SDS011;4667;42.726;23.252;2023-07-29T03:45:50;7.27;;;4.97;;
9260;SDS011;4667;42.726;23.252;2023-07-29T03:48:16;6.47;;;5.33;;
9260;SDS011;4667;42.726;23.252;2023-07-29T03:50:43;13.63;;;5.10;;
9260;SDS011;4667;42.726;23.252;2023-07-29T03:53:10;7.27;;;5.00;;
9260;SDS011;4667;42.726;23.252;2023-07-29T03:55:37;10.07;;;4.97;;
9260;SDS011;4667;42.726;23.252;2023-07-29T03:58:05;5.60;;;4.63;;
9260;SDS011;4667;42.726;23.252;2023-07-29T04:00:31;5.00;;;4.10;;
9260;SDS011;4667;42.726;23.252;2023-07-29T04:02:58;9.73;;;5.30;;
9260;SDS011;4667;42.726;23.252;2023-07-29T04:05:25;5.13;;;4.57;;
9260;SDS011;4667;42.726;23.252;2023-07-29T04:07:51;6.90;;;5.13;;
9260;SDS011;4667;42.726;23.252;2023-07-29T04:10:19;10.37;;;4.73;;
9260;SDS011;4667;42.726;23.252;2023-07-29T04:12:46;4.87;;;4.47;;
9260;SDS011;4667;42.726;23.252;2023-07-29T04:15:14;11.73;;;4.63;;
9260;SDS011;4667;42.726;23.252;2023-07-29T04:17:41;5.27;;;4.07;;
9260;SDS011;4667;42.726;23.252;2023-07-29T04:20:08;6.97;;;3.90;;
9260;SDS011;4667;42.726;23.252;2023-07-29T04:22:35;4.70;;;4.13;;
9260;SDS011;4667;42.726;23.252;2023-07-29T04:25:02;4.73;;;3.87;;
9260;SDS011;4667;42.726;23.252;2023-07-29T04:27:29;3.93;;;3.33;;
9260;SDS011;4667;42.726;23.252;2023-07-29T04:29:56;5.00;;;3.60;;
9260;SDS011;4667;42.726;23.252;2023-07-29T04:32:24;4.30;;;3.77;;
9260;SDS011;4667;42.726;23.252;2023-07-29T04:34:52;5.77;;;4.03;;
9260;SDS011;4667;42.726;23.252;2023-07-29T04:37:18;5.83;;;4.00;;
9260;SDS011;4667;42.726;23.252;2023-07-29T04:39:45;7.33;;;4.00;;
9260;SDS011;4667;42.726;23.252;2023-07-29T04:42:12;7.27;;;3.97;;
9260;SDS011;4667;42.726;23.252;2023-07-29T04:44:39;5.50;;;3.60;;
9260;SDS011;4667;42.726;23.252;2023-07-29T04:47:07;6.73;;;4.30;;
9260;SDS011;4667;42.726;23.252;2023-07-29T04:49:35;6.03;;;3.93;;
9260;SDS011;4667;42.726;23.252;2023-07-29T04:52:01;5.60;;;4.27;;
9260;SDS011;4667;42.726;23.252;2023-07-29T04:54:28;6.93;;;4.60;;
9260;SDS011;4667;42.726;23.252;2023-07-29T04:56:55;6.20;;;4.50;;
9260;SDS011;4667;42.726;23.252;2023-07-29T04:59:21;5.00;;;4.00;;
9260;SDS011;4667;42.726;23.252;2023-07-29T05:01:48;7.70;;;4.20;;
9260;SDS011;4667;42.726;23.252;2023-07-29T05:04:15;7.30;;;4.40;;
9260;SDS011;4667;42.726;23.252;2023-07-29T05:06:43;10.80;;;4.67;;
9260;SDS011;4667;42.726;23.252;2023-07-29T05:09:13;6.53;;;4.13;;
9260;SDS011;4667;42.726;23.252;2023-07-29T05:11:40;10.07;;;4.77;;
9260;SDS011;4667;42.726;23.252;2023-07-29T05:14:08;7.03;;;4.47;;
9260;SDS011;4667;42.726;23.252;2023-07-29T05:16:35;6.70;;;4.70;;
9260;SDS011;4667;42.726;23.252;2023-07-29T05:19:02;10.57;;;7.30;;
9260;SDS011;4667;42.726;23.252;2023-07-29T05:21:29;8.35;;;4.53;;
9260;SDS011;4667;42.726;23.252;2023-07-29T05:23:57;7.07;;;5.50;;
9260;SDS011;4667;42.726;23.252;2023-07-29T05:26:24;8.37;;;5.10;;
9260;SDS011;4667;42.726;23.252;2023-07-29T05:28:50;7.85;;;5.30;;
9260;SDS011;4667;42.726;23.252;2023-07-29T05:31:17;8.20;;;5.33;;
9260;SDS011;4667;42.726;23.252;2023-07-29T05:33:44;8.87;;;5.00;;
9260;SDS011;4667;42.726;23.252;2023-07-29T05:36:11;7.50;;;4.73;;
9260;SDS011;4667;42.726;23.252;2023-07-29T05:38:38;8.60;;;5.03;;
9260;SDS011;4667;42.726;23.252;2023-07-29T05:41:06;8.20;;;5.00;;
9260;SDS011;4667;42.726;23.252;2023-07-29T05:43:32;9.25;;;4.72;;
9260;SDS011;4667;42.726;23.252;2023-07-29T05:45:59;7.00;;;5.63;;
9260;SDS011;4667;42.726;23.252;2023-07-29T05:48:26;7.97;;;4.93;;
9260;SDS011;4667;42.726;23.252;2023-07-29T05:50:53;8.45;;;5.00;;
9260;SDS011;4667;42.726;23.252;2023-07-29T05:53:20;11.43;;;6.00;;
9260;SDS011;4667;42.726;23.252;2023-07-29T05:55:46;15.13;;;7.07;;
9260;SDS011;4667;42.726;23.252;2023-07-29T05:58:14;12.02;;;5.78;;
9260;SDS011;4667;42.726;23.252;2023-07-29T06:00:41;12.32;;;5.45;;
9260;SDS011;4667;42.726;23.252;2023-07-29T06:03:08;9.68;;;5.35;;
9260;SDS011;4667;42.726;23.252;2023-07-29T06:05:35;8.35;;;6.03;;
9260;SDS011;4667;42.726;23.252;2023-07-29T06:08:02;11.63;;;5.40;;
9260;SDS011;4667;42.726;23.252;2023-07-29T06:10:29;7.45;;;5.32;;
9260;SDS011;4667;42.726;23.252;2023-07-29T06:12:56;8.57;;;5.72;;
9260;SDS011;4667;42.726;23.252;2023-07-29T06:15:24;12.55;;;6.35;;
9260;SDS011;4667;42.726;23.252;2023-07-29T06:17:50;8.70;;;5.35;;
9260;SDS011;4667;42.726;23.252;2023-07-29T06:20:17;11.05;;;6.10;;
9260;SDS011;4667;42.726;23.252;2023-07-29T06:22:45;10.02;;;5.97;;
9260;SDS011;4667;42.726;23.252;2023-07-29T06:25:12;11.48;;;6.03;;
9260;SDS011;4667;42.726;23.252;2023-07-29T06:27:39;10.10;;;6.07;;
9260;SDS011;4667;42.726;23.252;2023-07-29T06:30:06;9.48;;;6.15;;
9260;SDS011;4667;42.726;23.252;2023-07-29T06:32:35;7.82;;;6.00;;
9260;SDS011;4667;42.726;23.252;2023-07-29T06:35:01;10.68;;;6.53;;
9260;SDS011;4667;42.726;23.252;2023-07-29T06:37:28;7.70;;;5.82;;
9260;SDS011;4667;42.726;23.252;2023-07-29T06:39:55;10.32;;;5.70;;
9260;SDS011;4667;42.726;23.252;2023-07-29T06:42:22;10.60;;;6.22;;
9260;SDS011;4667;42.726;23.252;2023-07-29T06:44:48;10.25;;;5.53;;
9260;SDS011;4667;42.726;23.252;2023-07-29T06:47:15;11.50;;;6.00;;
9260;SDS011;4667;42.726;23.252;2023-07-29T06:49:45;8.68;;;5.72;;
9260;SDS011;4667;42.726;23.252;2023-07-29T06:52:12;9.65;;;5.57;;
9260;SDS011;4667;42.726;23.252;2023-07-29T06:54:39;11.52;;;6.53;;
9260;SDS011;4667;42.726;23.252;2023-07-29T06:57:06;8.48;;;6.25;;
9260;SDS011;4667;42.726;23.252;2023-07-29T06:59:35;9.50;;;5.88;;
9260;SDS011;4667;42.726;23.252;2023-07-29T07:02:02;10.38;;;5.85;;
9260;SDS011;4667;42.726;23.252;2023-07-29T07:04:29;9.68;;;5.30;;
9260;SDS011;4667;42.726;23.252;2023-07-29T07:06:57;8.93;;;6.28;;
9260;SDS011;4667;42.726;23.252;2023-07-29T07:09:24;11.25;;;5.05;;
9260;SDS011;4667;42.726;23.252;2023-07-29T07:11:50;16.15;;;7.20;;
9260;SDS011;4667;42.726;23.252;2023-07-29T07:14:17;10.85;;;6.32;;
9260;SDS011;4667;42.726;23.252;2023-07-29T07:16:44;11.50;;;5.50;;
9260;SDS011;4667;42.726;23.252;2023-07-29T07:19:11;7.55;;;4.88;;
9260;SDS011;4667;42.726;23.252;2023-07-29T07:21:37;12.02;;;7.75;;
9260;SDS011;4667;42.726;23.252;2023-07-29T07:24:05;7.40;;;5.28;;
9260;SDS011;4667;42.726;23.252;2023-07-29T07:26:33;7.80;;;5.88;;
9260;SDS011;4667;42.726;23.252;2023-07-29T07:28:59;13.63;;;8.00;;
9260;SDS011;4667;42.726;23.252;2023-07-29T07:31:26;10.50;;;7.72;;
9260;SDS011;4667;42.726;23.252;2023-07-29T07:33:53;9.02;;;5.88;;
9260;SDS011;4667;42.726;23.252;2023-07-29T07:36:19;10.32;;;5.00;;
9260;SDS011;4667;42.726;23.252;2023-07-29T07:38:46;4.53;;;3.67;;
9260;SDS011;4667;42.726;23.252;2023-07-29T07:41:14;6.13;;;4.03;;
9260;SDS011;4667;42.726;23.252;2023-07-29T07:43:41;5.93;;;4.13;;
9260;SDS011;4667;42.726;23.252;2023-07-29T07:46:08;14.63;;;10.55;;
9260;SDS011;4667;42.726;23.252;2023-07-29T07:48:35;6.90;;;4.03;;
9260;SDS011;4667;42.726;23.252;2023-07-29T07:51:09;10.60;;;5.70;;
9260;SDS011;4667;42.726;23.252;2023-07-29T07:53:36;6.65;;;4.30;;
9260;SDS011;4667;42.726;23.252;2023-07-29T07:56:03;5.07;;;3.67;;
9260;SDS011;4667;42.726;23.252;2023-07-29T07:58:32;8.30;;;4.10;;
9260;SDS011;4667;42.726;23.252;2023-07-29T08:01:00;5.00;;;3.88;;
9260;SDS011;4667;42.726;23.252;2023-07-29T08:03:28;7.38;;;4.00;;
9260;SDS011;4667;42.726;23.252;2023-07-29T08:05:55;5.65;;;4.25;;
9260;SDS011;4667;42.726;23.252;2023-07-29T08:08:21;5.28;;;4.00;;
9260;SDS011;4667;42.726;23.252;2023-07-29T08:10:48;5.97;;;3.63;;
9260;SDS011;4667;42.726;23.252;2023-07-29T08:13:15;7.60;;;4.07;;
9260;SDS011;4667;42.726;23.252;2023-07-29T08:15:46;9.07;;;5.00;;
9260;SDS011;4667;42.726;23.252;2023-07-29T08:18:14;8.02;;;4.82;;
9260;SDS011;4667;42.726;23.252;2023-07-29T08:20:40;7.20;;;4.28;;
9260;SDS011;4667;42.726;23.252;2023-07-29T08:23:07;7.57;;;4.35;;
9260;SDS011;4667;42.726;23.252;2023-07-29T08:25:34;6.40;;;4.47;;
9260;SDS011;4667;42.726;23.252;2023-07-29T08:28:01;7.38;;;3.83;;
9260;SDS011;4667;42.726;23.252;2023-07-29T08:30:28;7.63;;;4.10;;
9260;SDS011;4667;42.726;23.252;2023-07-29T08:32:56;5.45;;;3.75;;
9260;SDS011;4667;42.726;23.252;2023-07-29T08:35:23;4.40;;;3.15;;
9260;SDS011;4667;42.726;23.252;2023-07-29T08:37:50;7.63;;;3.97;;
9260;SDS011;4667;42.726;23.252;2023-07-29T08:40:16;4.07;;;3.20;;
9260;SDS011;4667;42.726;23.252;2023-07-29T08:42:43;4.18;;;3.13;;
9260;SDS011;4667;42.726;23.252;2023-07-29T08:45:14;7.45;;;3.08;;
9260;SDS011;4667;42.726;23.252;2023-07-29T08:47:43;2.60;;;2.40;;
9260;SDS011;4667;42.726;23.252;2023-07-29T08:50:11;4.90;;;2.20;;
9260;SDS011;4667;42.726;23.252;2023-07-29T08:52:39;3.30;;;3.00;;
9260;SDS011;4667;42.726;23.252;2023-07-29T08:55:08;3.65;;;3.28;;
9260;SDS011;4667;42.726;23.252;2023-07-29T08:57:34;3.20;;;2.83;;
9260;SDS011;4667;42.726;23.252;2023-07-29T09:00:02;14.32;;;11.80;;
9260;SDS011;4667;42.726;23.252;2023-07-29T09:02:29;5.13;;;3.45;;
9260;SDS011;4667;42.726;23.252;2023-07-29T09:04:55;4.43;;;3.22;;
9260;SDS011;4667;42.726;23.252;2023-07-29T09:07:24;3.53;;;2.22;;
9260;SDS011;4667;42.726;23.252;2023-07-29T09:09:52;2.65;;;2.13;;
9260;SDS011;4667;42.726;23.252;2023-07-29T09:12:18;3.03;;;1.92;;
9260;SDS011;4667;42.726;23.252;2023-07-29T09:14:45;2.47;;;2.28;;
9260;SDS011;4667;42.726;23.252;2023-07-29T09:17:12;2.60;;;2.13;;
9260;SDS011;4667;42.726;23.252;2023-07-29T09:19:40;2.63;;;1.70;;
9260;SDS011;4667;42.726;23.252;2023-07-29T09:22:09;5.72;;;1.98;;
9260;SDS011;4667;42.726;23.252;2023-07-29T09:24:45;2.20;;;2.00;;
9260;SDS011;4667;42.726;23.252;2023-07-29T09:27:23;6.15;;;2.60;;
9260;SDS011;4667;42.726;23.252;2023-07-29T09:29:50;9.20;;;3.53;;
9260;SDS011;4667;42.726;23.252;2023-07-29T09:32:19;4.80;;;2.38;;
9260;SDS011;4667;42.726;23.252;2023-07-29T09:34:47;2.50;;;2.30;;
9260;SDS011;4667;42.726;23.252;2023-07-29T09:37:17;3.95;;;2.45;;
9260;SDS011;4667;42.726;23.252;2023-07-29T09:39:46;2.83;;;1.83;;
9260;SDS011;4667;42.726;23.252;2023-07-29T09:42:16;1.58;;;1.30;;
9260;SDS011;4667;42.726;23.252;2023-07-29T09:44:43;2.55;;;1.60;;
9260;SDS011;4667;42.726;23.252;2023-07-29T09:47:18;1.80;;;1.70;;
9260;SDS011;4667;42.726;23.252;2023-07-29T09:49:45;3.35;;;2.17;;
9260;SDS011;4667;42.726;23.252;2023-07-29T09:52:13;3.85;;;2.00;;
9260;SDS011;4667;42.726;23.252;2023-07-29T09:54:41;1.50;;;1.30;;
9260;SDS011;4667;42.726;23.252;2023-07-29T09:57:11;1.73;;;1.42;;
9260;SDS011;4667;42.726;23.252;2023-07-29T09:59:40;2.55;;;1.77;;
9260;SDS011;4667;42.726;23.252;2023-07-29T10:02:07;2.38;;;1.48;;
9260;SDS011;4667;42.726;23.252;2023-07-29T10:04:39;1.67;;;1.58;;
9260;SDS011;4667;42.726;23.252;2023-07-29T10:07:08;2.05;;;1.60;;
9260;SDS011;4667;42.726;23.252;2023-07-29T10:09:36;1.88;;;1.60;;
9260;SDS011;4667;42.726;23.252;2023-07-29T10:12:03;1.90;;;1.52;;
9260;SDS011;4667;42.726;23.252;2023-07-29T10:14:34;4.03;;;2.13;;
9260;SDS011;4667;42.726;23.252;2023-07-29T10:17:01;2.38;;;1.60;;
9260;SDS011;4667;42.726;23.252;2023-07-29T10:19:29;1.73;;;1.63;;
9260;SDS011;4667;42.726;23.252;2023-07-29T10:21:58;2.00;;;1.58;;
9260;SDS011;4667;42.726;23.252;2023-07-29T10:24:29;2.38;;;1.95;;
9260;SDS011;4667;42.726;23.252;2023-07-29T10:26:57;1.60;;;1.50;;
9260;SDS011;4667;42.726;23.252;2023-07-29T10:29:25;3.78;;;1.73;;
9260;SDS011;4667;42.726;23.252;2023-07-29T10:31:58;2.53;;;1.75;;
9260;SDS011;4667;42.726;23.252;2023-07-29T10:34:28;1.98;;;1.55;;
9260;SDS011;4667;42.726;23.252;2023-07-29T10:36:56;2.25;;;1.70;;
9260;SDS011;4667;42.726;23.252;2023-07-29T10:39:24;1.67;;;1.58;;
9260;SDS011;4667;42.726;23.252;2023-07-29T10:41:55;2.83;;;1.55;;
9260;SDS011;4667;42.726;23.252;2023-07-29T10:47:17;2.55;;;1.63;;
9260;SDS011;4667;42.726;23.252;2023-07-29T10:49:45;2.55;;;2.13;;
9260;SDS011;4667;42.726;23.252;2023-07-29T10:52:13;4.70;;;1.77;;
9260;SDS011;4667;42.726;23.252;2023-07-29T10:54:44;2.88;;;1.80;;
9260;SDS011;4667;42.726;23.252;2023-07-29T10:57:12;2.45;;;1.23;;
9260;SDS011;4667;42.726;23.252;2023-07-29T10:59:40;1.30;;;1.10;;
9260;SDS011;4667;42.726;23.252;2023-07-29T11:02:20;1.30;;;1.20;;
9260;SDS011;4667;42.726;23.252;2023-07-29T11:04:47;2.50;;;1.50;;
9260;SDS011;4667;42.726;23.252;2023-07-29T11:07:22;2.13;;;1.40;;
9260;SDS011;4667;42.726;23.252;2023-07-29T11:09:56;1.70;;;1.40;;
9260;SDS011;4667;42.726;23.252;2023-07-29T11:12:34;1.77;;;1.27;;
9260;SDS011;4667;42.726;23.252;2023-07-29T11:15:11;1.60;;;1.10;;
9260;SDS011;4667;42.726;23.252;2023-07-29T11:17:41;1.85;;;1.45;;
9260;SDS011;4667;42.726;23.252;2023-07-29T11:20:09;4.20;;;1.67;;
9260;SDS011;4667;42.726;23.252;2023-07-29T11:22:37;2.67;;;1.45;;
9260;SDS011;4667;42.726;23.252;2023-07-29T11:25:05;1.52;;;1.33;;
9260;SDS011;4667;42.726;23.252;2023-07-29T11:27:33;1.90;;;1.70;;
9260;SDS011;4667;42.726;23.252;2023-07-29T11:30:01;2.22;;;1.42;;
9260;SDS011;4667;42.726;23.252;2023-07-29T11:32:30;3.67;;;1.77;;
9260;SDS011;4667;42.726;23.252;2023-07-29T11:35:02;1.45;;;1.35;;
9260;SDS011;4667;42.726;23.252;2023-07-29T11:37:30;2.45;;;1.67;;
9260;SDS011;4667;42.726;23.252;2023-07-29T11:39:57;1.50;;;1.33;;
9260;SDS011;4667;42.726;23.252;2023-07-29T11:42:24;1.75;;;1.42;;
9260;SDS011;4667;42.726;23.252;2023-07-29T11:44:52;1.92;;;1.73;;
9260;SDS011;4667;42.726;23.252;2023-07-29T11:47:19;1.50;;;1.40;;
9260;SDS011;4667;42.726;23.252;2023-07-29T11:49:46;2.10;;;1.50;;
9260;SDS011;4667;42.726;23.252;2023-07-29T11:52:14;1.60;;;1.50;;
9260;SDS011;4667;42.726;23.252;2023-07-29T11:54:44;2.08;;;1.40;;
9260;SDS011;4667;42.726;23.252;2023-07-29T11:57:10;1.83;;;1.40;;
9260;SDS011;4667;42.726;23.252;2023-07-29T11:59:38;1.65;;;1.55;;
9260;SDS011;4667;42.726;23.252;2023-07-29T12:02:08;1.50;;;1.40;;
9260;SDS011;4667;42.726;23.252;2023-07-29T12:04:37;2.65;;;1.70;;
9260;SDS011;4667;42.726;23.252;2023-07-29T12:07:05;3.17;;;1.30;;
9260;SDS011;4667;42.726;23.252;2023-07-29T12:09:34;2.83;;;1.50;;
9260;SDS011;4667;42.726;23.252;2023-07-29T12:12:01;1.58;;;1.30;;
9260;SDS011;4667;42.726;23.252;2023-07-29T12:14:28;2.65;;;2.00;;
9260;SDS011;4667;42.726;23.252;2023-07-29T12:16:55;3.58;;;3.25;;
9260;SDS011;4667;42.726;23.252;2023-07-29T12:19:22;7.07;;;3.92;;
9260;SDS011;4667;42.726;23.252;2023-07-29T12:21:50;3.90;;;3.50;;
9260;SDS011;4667;42.726;23.252;2023-07-29T12:24:17;2.20;;;1.52;;
9260;SDS011;4667;42.726;23.252;2023-07-29T12:26:45;3.55;;;2.90;;
9260;SDS011;4667;42.726;23.252;2023-07-29T12:29:14;1.83;;;1.73;;
9260;SDS011;4667;42.726;23.252;2023-07-29T12:31:41;3.53;;;1.70;;
9260;SDS011;4667;42.726;23.252;2023-07-29T12:34:08;5.00;;;3.53;;
9260;SDS011;4667;42.726;23.252;2023-07-29T12:36:42;2.45;;;1.35;;
9260;SDS011;4667;42.726;23.252;2023-07-29T12:39:17;1.55;;;1.35;;
9260;SDS011;4667;42.726;23.252;2023-07-29T12:41:45;3.22;;;2.28;;
9260;SDS011;4667;42.726;23.252;2023-07-29T12:44:12;5.10;;;4.55;;
9260;SDS011;4667;42.726;23.252;2023-07-29T12:46:39;5.82;;;2.50;;
9260;SDS011;4667;42.726;23.252;2023-07-29T12:49:06;2.75;;;2.55;;
9260;SDS011;4667;42.726;23.252;2023-07-29T12:51:33;3.35;;;1.77;;
9260;SDS011;4667;42.726;23.252;2023-07-29T12:54:01;3.15;;;1.55;;
9260;SDS011;4667;42.726;23.252;2023-07-29T12:56:28;2.65;;;1.85;;
9260;SDS011;4667;42.726;23.252;2023-07-29T12:58:57;2.10;;;1.50;;
9260;SDS011;4667;42.726;23.252;2023-07-29T13:01:24;4.07;;;1.60;;
9260;SDS011;4667;42.726;23.252;2023-07-29T13:03:51;3.20;;;2.30;;
9260;SDS011;4667;42.726;23.252;2023-07-29T13:06:18;3.75;;;1.60;;
9260;SDS011;4667;42.726;23.252;2023-07-29T13:08:45;5.97;;;4.95;;
9260;SDS011;4667;42.726;23.252;2023-07-29T13:11:12;2.78;;;2.10;;
9260;SDS011;4667;42.726;23.252;2023-07-29T13:13:39;9.48;;;7.45;;
9260;SDS011;4667;42.726;23.252;2023-07-29T13:16:07;2.63;;;1.75;;
9260;SDS011;4667;42.726;23.252;2023-07-29T13:18:34;4.55;;;3.40;;
9260;SDS011;4667;42.726;23.252;2023-07-29T13:21:01;7.55;;;3.75;;
9260;SDS011;4667;42.726;23.252;2023-07-29T13:23:28;4.63;;;3.70;;
9260;SDS011;4667;42.726;23.252;2023-07-29T13:25:55;4.95;;;4.45;;
9260;SDS011;4667;42.726;23.252;2023-07-29T13:28:22;6.10;;;2.45;;
9260;SDS011;4667;42.726;23.252;2023-07-29T13:30:49;2.00;;;1.65;;
9260;SDS011;4667;42.726;23.252;2023-07-29T13:33:17;3.33;;;2.20;;
9260;SDS011;4667;42.726;23.252;2023-07-29T13:35:44;2.25;;;1.80;;
9260;SDS011;4667;42.726;23.252;2023-07-29T13:38:10;3.30;;;1.90;;
9260;SDS011;4667;42.726;23.252;2023-07-29T13:40:37;4.78;;;1.95;;
9260;SDS011;4667;42.726;23.252;2023-07-29T13:43:04;4.78;;;2.40;;
9260;SDS011;4667;42.726;23.252;2023-07-29T13:45:31;11.23;;;4.57;;
9260;SDS011;4667;42.726;23.252;2023-07-29T13:47:57;12.30;;;11.00;;
9260;SDS011;4667;42.726;23.252;2023-07-29T13:50:25;3.67;;;2.85;;
9260;SDS011;4667;42.726;23.252;2023-07-29T13:52:52;2.17;;;1.98;;
9260;SDS011;4667;42.726;23.252;2023-07-29T13:55:19;5.18;;;2.10;;
9260;SDS011;4667;42.726;23.252;2023-07-29T13:57:46;1.98;;;1.73;;
9260;SDS011;4667;42.726;23.252;2023-07-29T14:00:13;4.93;;;2.13;;
9260;SDS011;4667;42.726;23.252;2023-07-29T14:02:41;3.28;;;1.73;;
9260;SDS011;4667;42.726;23.252;2023-07-29T14:05:07;3.58;;;2.10;;
9260;SDS011;4667;42.726;23.252;2023-07-29T14:07:36;2.20;;;2.00;;
9260;SDS011;4667;42.726;23.252;2023-07-29T14:10:02;4.10;;;2.00;;
9260;SDS011;4667;42.726;23.252;2023-07-29T14:12:30;2.90;;;1.88;;
9260;SDS011;4667;42.726;23.252;2023-07-29T14:14:56;2.40;;;2.05;;
9260;SDS011;4667;42.726;23.252;2023-07-29T14:17:23;2.13;;;1.85;;
9260;SDS011;4667;42.726;23.252;2023-07-29T14:19:50;4.25;;;2.10;;
9260;SDS011;4667;42.726;23.252;2023-07-29T14:22:17;2.22;;;2.00;;
9260;SDS011;4667;42.726;23.252;2023-07-29T14:24:45;3.65;;;2.05;;
9260;SDS011;4667;42.726;23.252;2023-07-29T14:27:14;3.40;;;2.13;;
9260;SDS011;4667;42.726;23.252;2023-07-29T14:29:44;2.10;;;1.90;;
9260;SDS011;4667;42.726;23.252;2023-07-29T14:32:11;4.97;;;1.88;;
9260;SDS011;4667;42.726;23.252;2023-07-29T14:34:37;2.92;;;2.13;;
9260;SDS011;4667;42.726;23.252;2023-07-29T14:37:05;7.43;;;6.03;;
9260;SDS011;4667;42.726;23.252;2023-07-29T14:39:31;5.68;;;3.63;;
9260;SDS011;4667;42.726;23.252;2023-07-29T14:42:00;2.95;;;1.92;;
9260;SDS011;4667;42.726;23.252;2023-07-29T14:44:26;4.80;;;2.05;;
9260;SDS011;4667;42.726;23.252;2023-07-29T14:46:53;3.67;;;2.33;;
9260;SDS011;4667;42.726;23.252;2023-07-29T14:49:20;4.75;;;2.00;;
9260;SDS011;4667;42.726;23.252;2023-07-29T14:51:47;3.42;;;2.40;;
9260;SDS011;4667;42.726;23.252;2023-07-29T14:54:13;2.75;;;2.10;;
9260;SDS011;4667;42.726;23.252;2023-07-29T14:56:40;2.55;;;2.20;;
9260;SDS011;4667;42.726;23.252;2023-07-29T14:59:08;3.55;;;1.90;;
9260;SDS011;4667;42.726;23.252;2023-07-29T15:01:35;4.75;;;2.05;;
9260;SDS011;4667;42.726;23.252;2023-07-29T15:04:02;2.47;;;2.13;;
9260;SDS011;4667;42.726;23.252;2023-07-29T15:06:29;4.20;;;2.20;;